sensor_id;sensor_type;location;lat;lon;timestamp;temperature;humidity
40023;DHT22;25713;-35.352;149.036;2022-09-09T00:01:26;12.30;99.90
40023;DHT22;25713;-35.352;149.036;2022-09-09T00:04:00;12.30;99.90
40023;DHT22;25713;-35.352;149.036;2022-09-09T00:06:42;12.30;99.90
40023;DHT22;25713;-35.352;149.036;2022-09-09T00:09:15;12.30;99.90
40023;DHT22;25713;-35.352;149.036;2022-09-09T00:11:48;12.30;99.90
40023;DHT22;25713;-35.352;149.036;2022-09-09T00:14:25;12.30;99.90
40023;DHT22;25713;-35.352;149.036;2022-09-09T00:17:03;12.30;99.90
40023;DHT22;25713;-35.352;149.036;2022-09-09T00:19:38;12.30;99.90
40023;DHT22;25713;-35.352;149.036;2022-09-09T00:22:17;12.30;99.90
40023;DHT22;25713;-35.352;149.036;2022-09-09T00:24:48;12.30;99.90
40023;DHT22;25713;-35.352;149.036;2022-09-09T00:27:25;12.30;99.90
40023;DHT22;25713;-35.352;149.036;2022-09-09T00:29:58;12.30;99.90
40023;DHT22;25713;-35.352;149.036;2022-09-09T00:32:30;12.30;99.90
40023;DHT22;25713;-35.352;149.036;2022-09-09T00:35:10;12.30;99.90
40023;DHT22;25713;-35.352;149.036;2022-09-09T00:37:47;12.30;99.90
40023;DHT22;25713;-35.352;149.036;2022-09-09T00:40:25;12.30;99.90
40023;DHT22;25713;-35.352;149.036;2022-09-09T00:43:10;12.30;99.90
40023;DHT22;25713;-35.352;149.036;2022-09-09T00:48:49;12.30;99.90
40023;DHT22;25713;-35.352;149.036;2022-09-09T00:51:29;12.30;99.90
40023;DHT22;25713;-35.352;149.036;2022-09-09T00:54:20;12.30;99.90
40023;DHT22;25713;-35.352;149.036;2022-09-09T00:56:55;12.30;99.90
40023;DHT22;25713;-35.352;149.036;2022-09-09T00:59:34;12.30;99.90
40023;DHT22;25713;-35.352;149.036;2022-09-09T01:02:09;12.30;99.90
40023;DHT22;25713;-35.352;149.036;2022-09-09T01:04:42;12.30;99.90
40023;DHT22;25713;-35.352;149.036;2022-09-09T01:07:16;12.30;99.90
40023;DHT22;25713;-35.352;149.036;2022-09-09T01:09:54;12.30;99.90
40023;DHT22;25713;-35.352;149.036;2022-09-09T01:12:40;12.30;99.90
40023;DHT22;25713;-35.352;149.036;2022-09-09T01:15:14;12.40;99.90
40023;DHT22;25713;-35.352;149.036;2022-09-09T01:17:56;12.30;99.90
40023;DHT22;25713;-35.352;149.036;2022-09-09T01:20:29;12.30;99.90
40023;DHT22;25713;-35.352;149.036;2022-09-09T01:23:30;12.30;99.90
40023;DHT22;25713;-35.352;149.036;2022-09-09T01:26:28;12.30;99.90
40023;DHT22;25713;-35.352;149.036;2022-09-09T01:29:02;12.40;99.90
40023;DHT22;25713;-35.352;149.036;2022-09-09T01:31:41;12.40;99.90
40023;DHT22;25713;-35.352;149.036;2022-09-09T01:34:12;12.40;99.90
40023;DHT22;25713;-35.352;149.036;2022-09-09T01:36:45;12.30;99.90
40023;DHT22;25713;-35.352;149.036;2022-09-09T01:39:17;12.30;99.90
40023;DHT22;25713;-35.352;149.036;2022-09-09T01:41:50;12.40;99.90
40023;DHT22;25713;-35.352;149.036;2022-09-09T01:44:22;12.40;99.90
40023;DHT22;25713;-35.352;149.036;2022-09-09T01:46:51;12.40;99.90
40023;DHT22;25713;-35.352;149.036;2022-09-09T01:49:23;12.40;99.90
40023;DHT22;25713;-35.352;149.036;2022-09-09T01:54:41;12.40;99.90
40023;DHT22;25713;-35.352;149.036;2022-09-09T01:57:22;12.50;99.90
40023;DHT22;25713;-35.352;149.036;2022-09-09T02:00:03;12.50;99.90
40023;DHT22;25713;-35.352;149.036;2022-09-09T02:02:48;12.50;99.90
40023;DHT22;25713;-35.352;149.036;2022-09-09T02:05:34;12.50;99.90
40023;DHT22;25713;-35.352;149.036;2022-09-09T02:08:08;12.60;99.90
40023;DHT22;25713;-35.352;149.036;2022-09-09T02:11:01;12.50;99.90
40023;DHT22;25713;-35.352;149.036;2022-09-09T02:13:45;12.50;99.90
40023;DHT22;25713;-35.352;149.036;2022-09-09T02:16:21;12.60;99.90
40023;DHT22;25713;-35.352;149.036;2022-09-09T02:18:55;12.60;99.90
40023;DHT22;25713;-35.352;149.036;2022-09-09T02:21:35;12.60;99.90
40023;DHT22;25713;-35.352;149.036;2022-09-09T02:24:06;12.60;99.90
40023;DHT22;25713;-35.352;149.036;2022-09-09T02:26:43;12.60;99.90
40023;DHT22;25713;-35.352;149.036;2022-09-09T02:29:22;12.70;99.90
40023;DHT22;25713;-35.352;149.036;2022-09-09T02:31:53;12.70;99.90
40023;DHT22;25713;-35.352;149.036;2022-09-09T02:34:30;12.70;99.90
40023;DHT22;25713;-35.352;149.036;2022-09-09T02:37:02;12.60;99.90
40023;DHT22;25713;-35.352;149.036;2022-09-09T02:39:32;12.60;99.90
40023;DHT22;25713;-35.352;149.036;2022-09-09T02:42:03;12.60;99.90
40023;DHT22;25713;-35.352;149.036;2022-09-09T02:44:37;12.60;99.90
40023;DHT22;25713;-35.352;149.036;2022-09-09T02:47:18;12.70;99.90
40023;DHT22;25713;-35.352;149.036;2022-09-09T02:49:58;12.70;99.90
40023;DHT22;25713;-35.352;149.036;2022-09-09T02:52:37;12.80;99.90
40023;DHT22;25713;-35.352;149.036;2022-09-09T02:55:15;12.80;99.90
40023;DHT22;25713;-35.352;149.036;2022-09-09T02:57:50;12.80;99.90
40023;DHT22;25713;-35.352;149.036;2022-09-09T03:00:39;12.70;99.90
40023;DHT22;25713;-35.352;149.036;2022-09-09T03:03:09;12.70;99.90
40023;DHT22;25713;-35.352;149.036;2022-09-09T03:05:40;12.70;99.90
40023;DHT22;25713;-35.352;149.036;2022-09-09T03:08:10;12.60;99.90
40023;DHT22;25713;-35.352;149.036;2022-09-09T03:10:39;12.50;99.90
40023;DHT22;25713;-35.352;149.036;2022-09-09T03:13:09;12.50;99.90
40023;DHT22;25713;-35.352;149.036;2022-09-09T03:15:44;12.50;99.90
40023;DHT22;25713;-35.352;149.036;2022-09-09T03:18:18;12.50;99.90
40023;DHT22;25713;-35.352;149.036;2022-09-09T03:20:51;12.50;99.90
40023;DHT22;25713;-35.352;149.036;2022-09-09T03:23:22;12.60;99.90
40023;DHT22;25713;-35.352;149.036;2022-09-09T03:25:53;12.60;99.90
40023;DHT22;25713;-35.352;149.036;2022-09-09T03:28:30;12.60;99.90
40023;DHT22;25713;-35.352;149.036;2022-09-09T03:31:05;12.60;99.90
40023;DHT22;25713;-35.352;149.036;2022-09-09T03:33:40;12.60;99.90
40023;DHT22;25713;-35.352;149.036;2022-09-09T03:36:09;12.60;99.90
40023;DHT22;25713;-35.352;149.036;2022-09-09T03:38:39;12.60;99.90
40023;DHT22;25713;-35.352;149.036;2022-09-09T03:41:09;12.60;99.90
40023;DHT22;25713;-35.352;149.036;2022-09-09T03:43:39;12.60;99.90
40023;DHT22;25713;-35.352;149.036;2022-09-09T03:46:12;12.60;99.90
40023;DHT22;25713;-35.352;149.036;2022-09-09T03:48:41;12.70;99.90
40023;DHT22;25713;-35.352;149.036;2022-09-09T03:51:11;12.70;99.90
40023;DHT22;25713;-35.352;149.036;2022-09-09T03:53:41;12.70;99.90
40023;DHT22;25713;-35.352;149.036;2022-09-09T03:56:11;12.70;99.90
40023;DHT22;25713;-35.352;149.036;2022-09-09T03:58:41;12.70;99.90
40023;DHT22;25713;-35.352;149.036;2022-09-09T04:01:16;12.70;99.90
40023;DHT22;25713;-35.352;149.036;2022-09-09T04:03:45;12.70;99.90
40023;DHT22;25713;-35.352;149.036;2022-09-09T04:06:15;12.70;99.90
40023;DHT22;25713;-35.352;149.036;2022-09-09T04:08:48;12.80;99.90
40023;DHT22;25713;-35.352;149.036;2022-09-09T04:11:17;12.80;99.90
40023;DHT22;25713;-35.352;149.036;2022-09-09T04:13:49;12.80;99.90
40023;DHT22;25713;-35.352;149.036;2022-09-09T04:16:23;12.80;99.90
40023;DHT22;25713;-35.352;149.036;2022-09-09T04:18:53;12.70;99.90
40023;DHT22;25713;-35.352;149.036;2022-09-09T04:21:22;12.70;99.90
40023;DHT22;25713;-35.352;149.036;2022-09-09T04:23:52;12.70;99.90
40023;DHT22;25713;-35.352;149.036;2022-09-09T04:26:22;12.70;99.90
40023;DHT22;25713;-35.352;149.036;2022-09-09T04:28:51;12.70;99.90
40023;DHT22;25713;-35.352;149.036;2022-09-09T04:31:24;12.70;99.90
40023;DHT22;25713;-35.352;149.036;2022-09-09T04:33:57;12.80;99.90
40023;DHT22;25713;-35.352;149.036;2022-09-09T04:36:28;12.70;99.90
40023;DHT22;25713;-35.352;149.036;2022-09-09T04:39:02;12.70;99.90
40023;DHT22;25713;-35.352;149.036;2022-09-09T04:41:31;12.70;99.90
40023;DHT22;25713;-35.352;149.036;2022-09-09T04:44:01;12.70;99.90
40023;DHT22;25713;-35.352;149.036;2022-09-09T04:46:34;12.70;99.90
40023;DHT22;25713;-35.352;149.036;2022-09-09T04:49:02;12.70;99.90
40023;DHT22;25713;-35.352;149.036;2022-09-09T04:51:34;12.70;99.90
40023;DHT22;25713;-35.352;149.036;2022-09-09T04:54:03;12.70;99.90
40023;DHT22;25713;-35.352;149.036;2022-09-09T04:56:33;12.60;99.90
40023;DHT22;25713;-35.352;149.036;2022-09-09T04:59:03;12.50;99.90
40023;DHT22;25713;-35.352;149.036;2022-09-09T05:02:01;12.50;99.90
40023;DHT22;25713;-35.352;149.036;2022-09-09T05:04:31;12.50;99.90
40023;DHT22;25713;-35.352;149.036;2022-09-09T05:07:01;12.50;99.90
40023;DHT22;25713;-35.352;149.036;2022-09-09T05:09:30;12.60;99.90
40023;DHT22;25713;-35.352;149.036;2022-09-09T05:12:01;12.60;99.90
40023;DHT22;25713;-35.352;149.036;2022-09-09T05:14:34;12.60;99.90
40023;DHT22;25713;-35.352;149.036;2022-09-09T05:17:07;12.70;99.90
40023;DHT22;25713;-35.352;149.036;2022-09-09T05:19:39;12.60;99.90
40023;DHT22;25713;-35.352;149.036;2022-09-09T05:22:09;12.70;99.90
40023;DHT22;25713;-35.352;149.036;2022-09-09T05:24:44;12.70;99.90
40023;DHT22;25713;-35.352;149.036;2022-09-09T05:27:14;12.70;99.90
40023;DHT22;25713;-35.352;149.036;2022-09-09T05:29:43;12.70;99.90
40023;DHT22;25713;-35.352;149.036;2022-09-09T05:32:15;12.70;99.90
40023;DHT22;25713;-35.352;149.036;2022-09-09T05:34:48;12.70;99.90
40023;DHT22;25713;-35.352;149.036;2022-09-09T05:37:17;12.70;99.90
40023;DHT22;25713;-35.352;149.036;2022-09-09T05:39:47;12.70;99.90
40023;DHT22;25713;-35.352;149.036;2022-09-09T05:42:17;12.70;99.90
40023;DHT22;25713;-35.352;149.036;2022-09-09T05:44:46;12.70;99.90
40023;DHT22;25713;-35.352;149.036;2022-09-09T05:47:19;12.70;99.90
40023;DHT22;25713;-35.352;149.036;2022-09-09T05:49:48;12.70;99.90
40023;DHT22;25713;-35.352;149.036;2022-09-09T05:52:18;12.70;99.90
40023;DHT22;25713;-35.352;149.036;2022-09-09T05:54:47;12.80;99.90
40023;DHT22;25713;-35.352;149.036;2022-09-09T05:57:16;12.90;99.90
40023;DHT22;25713;-35.352;149.036;2022-09-09T05:59:46;12.80;99.90
40023;DHT22;25713;-35.352;149.036;2022-09-09T06:02:19;12.90;99.90
40023;DHT22;25713;-35.352;149.036;2022-09-09T06:04:49;12.90;99.90
40023;DHT22;25713;-35.352;149.036;2022-09-09T06:07:19;12.90;99.90
40023;DHT22;25713;-35.352;149.036;2022-09-09T06:09:48;12.90;99.90
40023;DHT22;25713;-35.352;149.036;2022-09-09T06:12:18;12.90;99.90
40023;DHT22;25713;-35.352;149.036;2022-09-09T06:14:47;13.00;99.90
40023;DHT22;25713;-35.352;149.036;2022-09-09T06:17:20;13.00;99.90
40023;DHT22;25713;-35.352;149.036;2022-09-09T06:19:50;13.00;99.90
40023;DHT22;25713;-35.352;149.036;2022-09-09T06:22:19;13.00;99.90
40023;DHT22;25713;-35.352;149.036;2022-09-09T06:24:49;13.00;99.90
40023;DHT22;25713;-35.352;149.036;2022-09-09T06:27:19;13.00;99.90
40023;DHT22;25713;-35.352;149.036;2022-09-09T06:29:49;13.00;99.90
40023;DHT22;25713;-35.352;149.036;2022-09-09T06:32:21;13.00;99.90
40023;DHT22;25713;-35.352;149.036;2022-09-09T06:34:52;13.00;99.90
40023;DHT22;25713;-35.352;149.036;2022-09-09T06:37:21;12.90;99.90
40023;DHT22;25713;-35.352;149.036;2022-09-09T06:39:52;12.90;99.90
40023;DHT22;25713;-35.352;149.036;2022-09-09T06:42:22;13.00;99.90
40023;DHT22;25713;-35.352;149.036;2022-09-09T06:44:51;12.90;99.90
40023;DHT22;25713;-35.352;149.036;2022-09-09T06:47:49;13.00;99.90
40023;DHT22;25713;-35.352;149.036;2022-09-09T06:50:19;13.00;99.90
40023;DHT22;25713;-35.352;149.036;2022-09-09T06:52:48;13.00;99.90
40023;DHT22;25713;-35.352;149.036;2022-09-09T06:55:18;13.00;99.90
40023;DHT22;25713;-35.352;149.036;2022-09-09T06:57:47;13.00;99.90
40023;DHT22;25713;-35.352;149.036;2022-09-09T07:00:21;13.00;99.90
40023;DHT22;25713;-35.352;149.036;2022-09-09T07:02:54;13.00;99.90
40023;DHT22;25713;-35.352;149.036;2022-09-09T07:05:23;13.00;99.90
40023;DHT22;25713;-35.352;149.036;2022-09-09T07:07:54;13.00;99.90
40023;DHT22;25713;-35.352;149.036;2022-09-09T07:10:25;13.00;99.90
40023;DHT22;25713;-35.352;149.036;2022-09-09T07:12:54;13.00;99.90
40023;DHT22;25713;-35.352;149.036;2022-09-09T07:15:26;13.00;99.90
40023;DHT22;25713;-35.352;149.036;2022-09-09T07:18:01;13.00;99.90
40023;DHT22;25713;-35.352;149.036;2022-09-09T07:20:31;13.00;99.90
40023;DHT22;25713;-35.352;149.036;2022-09-09T07:23:01;13.00;99.90
40023;DHT22;25713;-35.352;149.036;2022-09-09T07:25:31;13.00;99.90
40023;DHT22;25713;-35.352;149.036;2022-09-09T07:28:00;13.00;99.90
40023;DHT22;25713;-35.352;149.036;2022-09-09T07:30:29;13.00;99.90
40023;DHT22;25713;-35.352;149.036;2022-09-09T07:33:03;13.00;99.90
40023;DHT22;25713;-35.352;149.036;2022-09-09T07:35:31;12.90;99.90
40023;DHT22;25713;-35.352;149.036;2022-09-09T07:38:02;12.90;99.90
40023;DHT22;25713;-35.352;149.036;2022-09-09T07:40:31;13.00;99.90
40023;DHT22;25713;-35.352;149.036;2022-09-09T07:43:01;12.90;99.90
40023;DHT22;25713;-35.352;149.036;2022-09-09T07:45:31;12.90;99.90
40023;DHT22;25713;-35.352;149.036;2022-09-09T07:48:04;13.00;99.90
40023;DHT22;25713;-35.352;149.036;2022-09-09T07:50:34;12.90;99.90
40023;DHT22;25713;-35.352;149.036;2022-09-09T07:53:04;12.80;99.90
40023;DHT22;25713;-35.352;149.036;2022-09-09T07:55:33;12.80;99.90
40023;DHT22;25713;-35.352;149.036;2022-09-09T07:58:03;12.80;99.90
40023;DHT22;25713;-35.352;149.036;2022-09-09T08:00:32;12.70;99.90
40023;DHT22;25713;-35.352;149.036;2022-09-09T08:03:04;12.80;99.90
40023;DHT22;25713;-35.352;149.036;2022-09-09T08:05:33;12.80;99.90
40023;DHT22;25713;-35.352;149.036;2022-09-09T08:08:04;12.80;99.90
40023;DHT22;25713;-35.352;149.036;2022-09-09T08:10:33;12.80;99.90
40023;DHT22;25713;-35.352;149.036;2022-09-09T08:13:03;12.80;99.90
40023;DHT22;25713;-35.352;149.036;2022-09-09T08:15:33;12.80;99.90
40023;DHT22;25713;-35.352;149.036;2022-09-09T08:18:04;12.80;99.90
40023;DHT22;25713;-35.352;149.036;2022-09-09T08:20:35;12.80;99.90
40023;DHT22;25713;-35.352;149.036;2022-09-09T08:23:05;12.80;99.90
40023;DHT22;25713;-35.352;149.036;2022-09-09T08:25:36;12.70;99.90
40023;DHT22;25713;-35.352;149.036;2022-09-09T08:28:05;12.60;99.90
40023;DHT22;25713;-35.352;149.036;2022-09-09T08:30:35;12.60;99.90
40023;DHT22;25713;-35.352;149.036;2022-09-09T08:33:06;12.60;99.90
40023;DHT22;25713;-35.352;149.036;2022-09-09T08:35:36;12.60;99.90
40023;DHT22;25713;-35.352;149.036;2022-09-09T08:38:05;12.60;99.90
40023;DHT22;25713;-35.352;149.036;2022-09-09T08:40:38;12.60;99.90
40023;DHT22;25713;-35.352;149.036;2022-09-09T08:43:13;12.70;99.90
40023;DHT22;25713;-35.352;149.036;2022-09-09T08:45:49;12.70;99.90
40023;DHT22;25713;-35.352;149.036;2022-09-09T08:48:34;12.60;99.90
40023;DHT22;25713;-35.352;149.036;2022-09-09T08:51:07;12.50;99.90
40023;DHT22;25713;-35.352;149.036;2022-09-09T08:53:41;12.40;99.90
40023;DHT22;25713;-35.352;149.036;2022-09-09T08:56:16;12.40;99.90
40023;DHT22;25713;-35.352;149.036;2022-09-09T08:58:50;12.30;99.90
40023;DHT22;25713;-35.352;149.036;2022-09-09T09:01:41;12.20;99.90
40023;DHT22;25713;-35.352;149.036;2022-09-09T09:04:32;12.10;99.90
40023;DHT22;25713;-35.352;149.036;2022-09-09T09:07:09;12.10;99.90
40023;DHT22;25713;-35.352;149.036;2022-09-09T09:09:46;12.10;99.90
40023;DHT22;25713;-35.352;149.036;2022-09-09T09:12:21;12.20;99.90
40023;DHT22;25713;-35.352;149.036;2022-09-09T09:14:52;12.20;99.90
40023;DHT22;25713;-35.352;149.036;2022-09-09T09:17:23;12.30;99.90
40023;DHT22;25713;-35.352;149.036;2022-09-09T09:19:55;12.30;99.90
40023;DHT22;25713;-35.352;149.036;2022-09-09T09:22:30;12.40;99.90
40023;DHT22;25713;-35.352;149.036;2022-09-09T09:25:09;12.40;99.90
40023;DHT22;25713;-35.352;149.036;2022-09-09T09:27:57;12.40;99.90
40023;DHT22;25713;-35.352;149.036;2022-09-09T09:30:31;12.20;99.90
40023;DHT22;25713;-35.352;149.036;2022-09-09T09:33:12;12.20;99.90
40023;DHT22;25713;-35.352;149.036;2022-09-09T09:35:47;12.20;99.90
40023;DHT22;25713;-35.352;149.036;2022-09-09T09:38:19;12.10;99.90
40023;DHT22;25713;-35.352;149.036;2022-09-09T09:40:52;12.10;99.90
40023;DHT22;25713;-35.352;149.036;2022-09-09T09:43:25;12.10;99.90
40023;DHT22;25713;-35.352;149.036;2022-09-09T09:45:55;12.00;99.90
40023;DHT22;25713;-35.352;149.036;2022-09-09T09:48:27;12.10;99.90
40023;DHT22;25713;-35.352;149.036;2022-09-09T09:51:02;12.10;99.90
40023;DHT22;25713;-35.352;149.036;2022-09-09T09:53:34;12.20;99.90
40023;DHT22;25713;-35.352;149.036;2022-09-09T09:56:06;12.20;99.90
40023;DHT22;25713;-35.352;149.036;2022-09-09T09:58:49;12.30;99.90
40023;DHT22;25713;-35.352;149.036;2022-09-09T10:01:22;12.30;99.90
40023;DHT22;25713;-35.352;149.036;2022-09-09T10:03:54;12.40;99.90
40023;DHT22;25713;-35.352;149.036;2022-09-09T10:06:36;12.40;99.90
40023;DHT22;25713;-35.352;149.036;2022-09-09T10:09:18;12.40;99.90
40023;DHT22;25713;-35.352;149.036;2022-09-09T10:11:54;12.40;99.90
40023;DHT22;25713;-35.352;149.036;2022-09-09T10:14:33;12.40;99.90
40023;DHT22;25713;-35.352;149.036;2022-09-09T10:17:16;12.40;99.90
40023;DHT22;25713;-35.352;149.036;2022-09-09T10:19:56;12.40;99.90
40023;DHT22;25713;-35.352;149.036;2022-09-09T10:22:33;12.50;99.90
40023;DHT22;25713;-35.352;149.036;2022-09-09T10:25:18;12.50;99.90
40023;DHT22;25713;-35.352;149.036;2022-09-09T10:27:59;12.50;99.90
40023;DHT22;25713;-35.352;149.036;2022-09-09T10:30:40;12.50;99.90
40023;DHT22;25713;-35.352;149.036;2022-09-09T10:33:21;12.50;99.90
40023;DHT22;25713;-35.352;149.036;2022-09-09T10:35:57;12.50;99.90
40023;DHT22;25713;-35.352;149.036;2022-09-09T10:38:33;12.50;99.90
40023;DHT22;25713;-35.352;149.036;2022-09-09T10:41:16;12.50;99.90
40023;DHT22;25713;-35.352;149.036;2022-09-09T10:46:57;12.50;99.90
40023;DHT22;25713;-35.352;149.036;2022-09-09T10:49:32;12.50;99.90
40023;DHT22;25713;-35.352;149.036;2022-09-09T10:52:09;12.50;99.90
40023;DHT22;25713;-35.352;149.036;2022-09-09T10:54:53;12.50;99.90
40023;DHT22;25713;-35.352;149.036;2022-09-09T10:57:29;12.50;99.90
40023;DHT22;25713;-35.352;149.036;2022-09-09T11:00:02;12.50;99.90
40023;DHT22;25713;-35.352;149.036;2022-09-09T11:02:33;12.50;99.90
40023;DHT22;25713;-35.352;149.036;2022-09-09T11:05:05;12.40;99.90
40023;DHT22;25713;-35.352;149.036;2022-09-09T11:07:39;12.50;99.90
40023;DHT22;25713;-35.352;149.036;2022-09-09T11:10:20;12.50;99.90
40023;DHT22;25713;-35.352;149.036;2022-09-09T11:12:54;12.50;99.90
40023;DHT22;25713;-35.352;149.036;2022-09-09T11:15:30;12.40;99.90
40023;DHT22;25713;-35.352;149.036;2022-09-09T11:18:03;12.40;99.90
40023;DHT22;25713;-35.352;149.036;2022-09-09T11:20:33;12.40;99.90
40023;DHT22;25713;-35.352;149.036;2022-09-09T11:23:04;12.40;99.90
40023;DHT22;25713;-35.352;149.036;2022-09-09T11:25:42;12.40;99.90
40023;DHT22;25713;-35.352;149.036;2022-09-09T11:28:30;12.40;99.90
40023;DHT22;25713;-35.352;149.036;2022-09-09T11:31:11;12.40;99.90
40023;DHT22;25713;-35.352;149.036;2022-09-09T11:34:03;12.40;99.90
40023;DHT22;25713;-35.352;149.036;2022-09-09T11:36:53;12.40;99.90
40023;DHT22;25713;-35.352;149.036;2022-09-09T11:39:52;12.40;99.90
40023;DHT22;25713;-35.352;149.036;2022-09-09T11:42:27;12.40;99.90
40023;DHT22;25713;-35.352;149.036;2022-09-09T11:44:56;12.40;99.90
40023;DHT22;25713;-35.352;149.036;2022-09-09T11:47:26;12.40;99.90
40023;DHT22;25713;-35.352;149.036;2022-09-09T11:50:07;12.40;99.90
40023;DHT22;25713;-35.352;149.036;2022-09-09T11:52:41;12.40;99.90
40023;DHT22;25713;-35.352;149.036;2022-09-09T11:55:11;12.40;99.90
40023;DHT22;25713;-35.352;149.036;2022-09-09T11:57:43;12.40;99.90
40023;DHT22;25713;-35.352;149.036;2022-09-09T12:00:34;12.40;99.90
40023;DHT22;25713;-35.352;149.036;2022-09-09T12:03:04;12.30;99.90
40023;DHT22;25713;-35.352;149.036;2022-09-09T12:05:40;12.30;99.90
40023;DHT22;25713;-35.352;149.036;2022-09-09T12:08:16;12.40;99.90
40023;DHT22;25713;-35.352;149.036;2022-09-09T12:10:54;12.30;99.90
40023;DHT22;25713;-35.352;149.036;2022-09-09T12:13:27;12.40;99.90
40023;DHT22;25713;-35.352;149.036;2022-09-09T12:15:58;12.30;99.90
40023;DHT22;25713;-35.352;149.036;2022-09-09T12:18:33;12.40;99.90
40023;DHT22;25713;-35.352;149.036;2022-09-09T12:21:07;12.30;99.90
40023;DHT22;25713;-35.352;149.036;2022-09-09T12:23:45;12.30;99.90
40023;DHT22;25713;-35.352;149.036;2022-09-09T12:26:34;12.30;99.90
40023;DHT22;25713;-35.352;149.036;2022-09-09T12:29:21;12.30;99.90
40023;DHT22;25713;-35.352;149.036;2022-09-09T12:31:56;12.30;99.90
40023;DHT22;25713;-35.352;149.036;2022-09-09T12:34:35;12.30;99.90
40023;DHT22;25713;-35.352;149.036;2022-09-09T12:37:11;12.30;99.90
40023;DHT22;25713;-35.352;149.036;2022-09-09T12:39:47;12.30;99.90
40023;DHT22;25713;-35.352;149.036;2022-09-09T12:42:19;12.30;99.90
40023;DHT22;25713;-35.352;149.036;2022-09-09T12:44:56;12.30;99.90
40023;DHT22;25713;-35.352;149.036;2022-09-09T12:47:34;12.30;99.90
40023;DHT22;25713;-35.352;149.036;2022-09-09T12:50:11;12.30;99.90
40023;DHT22;25713;-35.352;149.036;2022-09-09T12:52:44;12.30;99.90
40023;DHT22;25713;-35.352;149.036;2022-09-09T12:55:18;12.30;99.90
40023;DHT22;25713;-35.352;149.036;2022-09-09T12:57:49;12.30;99.90
40023;DHT22;25713;-35.352;149.036;2022-09-09T13:00:21;12.30;99.90
40023;DHT22;25713;-35.352;149.036;2022-09-09T13:02:53;12.30;99.90
40023;DHT22;25713;-35.352;149.036;2022-09-09T13:05:24;12.30;99.90
40023;DHT22;25713;-35.352;149.036;2022-09-09T13:08:02;12.30;99.90
40023;DHT22;25713;-35.352;149.036;2022-09-09T13:10:35;12.20;99.90
40023;DHT22;25713;-35.352;149.036;2022-09-09T13:13:10;12.20;99.90
40023;DHT22;25713;-35.352;149.036;2022-09-09T13:15:50;12.20;99.90
40023;DHT22;25713;-35.352;149.036;2022-09-09T13:18:23;12.20;99.90
40023;DHT22;25713;-35.352;149.036;2022-09-09T13:20:53;12.20;99.90
40023;DHT22;25713;-35.352;149.036;2022-09-09T13:23:23;12.20;99.90
40023;DHT22;25713;-35.352;149.036;2022-09-09T13:25:58;12.20;99.90
40023;DHT22;25713;-35.352;149.036;2022-09-09T13:28:29;12.20;99.90
40023;DHT22;25713;-35.352;149.036;2022-09-09T13:31:01;12.20;99.90
40023;DHT22;25713;-35.352;149.036;2022-09-09T13:33:33;12.20;99.90
40023;DHT22;25713;-35.352;149.036;2022-09-09T13:36:04;12.20;99.90
40023;DHT22;25713;-35.352;149.036;2022-09-09T13:38:37;12.20;99.90
40023;DHT22;25713;-35.352;149.036;2022-09-09T13:41:08;12.20;99.90
40023;DHT22;25713;-35.352;149.036;2022-09-09T13:43:42;12.20;99.90
40023;DHT22;25713;-35.352;149.036;2022-09-09T13:46:27;12.20;99.90
40023;DHT22;25713;-35.352;149.036;2022-09-09T13:48:57;12.20;99.90
40023;DHT22;25713;-35.352;149.036;2022-09-09T13:51:34;12.20;99.90
40023;DHT22;25713;-35.352;149.036;2022-09-09T13:54:05;12.20;99.90
40023;DHT22;25713;-35.352;149.036;2022-09-09T13:56:35;12.20;99.90
40023;DHT22;25713;-35.352;149.036;2022-09-09T13:59:06;12.20;99.90
40023;DHT22;25713;-35.352;149.036;2022-09-09T14:01:37;12.10;99.90
40023;DHT22;25713;-35.352;149.036;2022-09-09T14:04:07;12.20;99.90
40023;DHT22;25713;-35.352;149.036;2022-09-09T14:06:37;12.10;99.90
40023;DHT22;25713;-35.352;149.036;2022-09-09T14:09:07;12.10;99.90
40023;DHT22;25713;-35.352;149.036;2022-09-09T14:11:38;12.10;99.90
40023;DHT22;25713;-35.352;149.036;2022-09-09T14:14:08;12.10;99.90
40023;DHT22;25713;-35.352;149.036;2022-09-09T14:16:39;12.10;99.90
40023;DHT22;25713;-35.352;149.036;2022-09-09T14:19:09;12.10;99.90
40023;DHT22;25713;-35.352;149.036;2022-09-09T14:21:39;12.10;99.90
40023;DHT22;25713;-35.352;149.036;2022-09-09T14:24:08;12.10;99.90
40023;DHT22;25713;-35.352;149.036;2022-09-09T14:26:37;12.10;99.90
40023;DHT22;25713;-35.352;149.036;2022-09-09T14:29:07;12.00;99.90
40023;DHT22;25713;-35.352;149.036;2022-09-09T14:31:38;12.10;99.90
40023;DHT22;25713;-35.352;149.036;2022-09-09T14:34:07;12.10;99.90
40023;DHT22;25713;-35.352;149.036;2022-09-09T14:36:37;12.10;99.90
40023;DHT22;25713;-35.352;149.036;2022-09-09T14:39:06;12.10;99.90
40023;DHT22;25713;-35.352;149.036;2022-09-09T14:41:36;12.00;99.90
40023;DHT22;25713;-35.352;149.036;2022-09-09T14:44:05;12.00;99.90
40023;DHT22;25713;-35.352;149.036;2022-09-09T14:46:35;12.00;99.90
40023;DHT22;25713;-35.352;149.036;2022-09-09T14:49:07;12.00;99.90
40023;DHT22;25713;-35.352;149.036;2022-09-09T14:51:36;12.00;99.90
40023;DHT22;25713;-35.352;149.036;2022-09-09T15:54:56;11.80;99.90
40023;DHT22;25713;-35.352;149.036;2022-09-09T15:57:25;11.80;99.90
40023;DHT22;25713;-35.352;149.036;2022-09-09T15:59:55;11.70;99.90
40023;DHT22;25713;-35.352;149.036;2022-09-09T16:02:24;11.70;99.90
40023;DHT22;25713;-35.352;149.036;2022-09-09T16:04:53;11.80;99.90
40023;DHT22;25713;-35.352;149.036;2022-09-09T16:07:23;11.80;99.90
40023;DHT22;25713;-35.352;149.036;2022-09-09T16:09:54;11.80;99.90
40023;DHT22;25713;-35.352;149.036;2022-09-09T16:12:24;11.80;99.90
40023;DHT22;25713;-35.352;149.036;2022-09-09T16:14:53;11.80;99.90
40023;DHT22;25713;-35.352;149.036;2022-09-09T16:17:23;11.80;99.90
40023;DHT22;25713;-35.352;149.036;2022-09-09T16:19:52;11.90;99.90
40023;DHT22;25713;-35.352;149.036;2022-09-09T16:22:21;11.90;99.90
40023;DHT22;25713;-35.352;149.036;2022-09-09T16:24:51;11.90;99.90
40023;DHT22;25713;-35.352;149.036;2022-09-09T16:27:22;11.90;99.90
40023;DHT22;25713;-35.352;149.036;2022-09-09T16:29:51;11.90;99.90
40023;DHT22;25713;-35.352;149.036;2022-09-09T16:32:20;11.90;99.90
40023;DHT22;25713;-35.352;149.036;2022-09-09T16:34:50;11.90;99.90
40023;DHT22;25713;-35.352;149.036;2022-09-09T16:37:19;11.80;99.90